createdAt,value
2023-10-23T00:01:38.000Z,57.11
2023-10-23T00:04:04.605Z,58.39
2023-10-23T00:06:31.271Z,57.98
2023-10-23T00:08:57.757Z,57.42
2023-10-23T00:11:24.190Z,57.58
2023-10-23T00:13:50.637Z,57.31
2023-10-23T00:16:17.140Z,57.88
2023-10-23T00:18:43.664Z,59.19
2023-10-23T00:21:10.150Z,60.15
2023-10-23T00:23:36.701Z,60.48
2023-10-23T00:26:03.127Z,60.21
2023-10-23T00:28:29.542Z,60.52
2023-10-23T00:30:56.090Z,60.49
2023-10-23T00:33:22.716Z,60.13
2023-10-23T00:35:49.252Z,60.51
2023-10-23T00:38:15.712Z,61.61
2023-10-23T00:40:42.220Z,62.61
2023-10-23T00:43:08.785Z,62.70
2023-10-23T00:45:35.350Z,62.89
2023-10-23T00:48:01.829Z,61.72
2023-10-23T00:50:28.292Z,62.26
2023-10-23T00:52:54.760Z,61.87
2023-10-23T00:55:21.235Z,61.26
2023-10-23T00:57:47.711Z,60.95
2023-10-23T01:00:14.315Z,60.70
2023-10-23T01:02:40.923Z,61.20
2023-10-23T01:05:07.420Z,61.30
2023-10-23T01:07:33.855Z,60.50
2023-10-23T01:10:03.431Z,61.47
2023-10-23T01:12:29.925Z,62.04
2023-10-23T01:14:56.401Z,61.74
2023-10-23T01:17:22.963Z,62.07
2023-10-23T01:22:33.392Z,60.69
2023-10-23T01:25:00.028Z,60.61
2023-10-23T01:27:26.518Z,61.88
2023-10-23T01:29:52.969Z,62.16
2023-10-23T01:32:19.424Z,61.03
2023-10-23T01:34:45.963Z,61.80
2023-10-23T01:37:12.421Z,62.98
2023-10-23T01:39:38.881Z,62.25
2023-10-23T01:42:05.362Z,61.88
2023-10-23T01:44:31.816Z,61.01
2023-10-23T01:46:58.249Z,62.34
2023-10-23T01:49:24.678Z,61.14
2023-10-23T01:51:51.165Z,61.82
2023-10-23T01:54:17.727Z,61.90
2023-10-23T01:56:44.185Z,61.31
2023-10-23T01:59:10.645Z,62.79
2023-10-23T02:01:37.155Z,61.16
2023-10-23T02:04:03.857Z,61.54
2023-10-23T02:06:30.442Z,60.12
2023-10-23T02:08:56.938Z,60.05
2023-10-23T02:11:23.387Z,59.94
2023-10-23T02:13:49.856Z,60.83
2023-10-23T02:16:16.370Z,61.54
2023-10-23T02:18:42.929Z,61.51
2023-10-23T02:21:09.517Z,61.32
2023-10-23T02:23:48.799Z,60.42
2023-10-23T02:26:20.050Z,62.07
2023-10-23T02:28:46.483Z,63.04
2023-10-23T02:31:13.113Z,62.67
2023-10-23T02:33:39.615Z,62.92
2023-10-23T02:36:06.169Z,63.15
2023-10-23T02:38:32.660Z,63.39
2023-10-23T02:40:59.121Z,61.81
2023-10-23T02:43:25.611Z,62.03
2023-10-23T02:45:52.225Z,61.78
2023-10-23T02:48:18.877Z,62.78
2023-10-23T02:50:45.355Z,62.55
2023-10-23T02:53:11.797Z,62.63
2023-10-23T02:55:38.265Z,63.04
2023-10-23T02:58:04.768Z,62.52
2023-10-23T03:00:31.270Z,62.39
2023-10-23T03:02:57.927Z,63.11
2023-10-23T03:05:24.431Z,62.74
2023-10-23T03:07:50.878Z,63.56
2023-10-23T03:10:17.348Z,63.42
2023-10-23T03:12:43.833Z,63.87
2023-10-23T03:15:10.302Z,63.91
2023-10-23T03:17:36.846Z,63.44
2023-10-23T03:20:03.354Z,64.19
2023-10-23T03:22:29.810Z,63.57
2023-10-23T03:24:56.260Z,62.86
2023-10-23T03:27:22.717Z,62.90
2023-10-23T03:29:49.225Z,61.59
2023-10-23T03:32:15.650Z,60.65
2023-10-23T03:34:42.144Z,60.42
2023-10-23T03:37:08.591Z,60.18
2023-10-23T03:39:35.246Z,59.97
2023-10-23T03:42:02.451Z,60.60
2023-10-23T03:44:28.922Z,61.24
2023-10-23T03:46:55.407Z,62.13
2023-10-23T03:49:21.859Z,62.57
2023-10-23T03:51:48.364Z,61.26
2023-10-23T03:54:14.895Z,62.66
2023-10-23T03:56:41.400Z,62.66
2023-10-23T03:59:07.863Z,62.71
2023-10-23T04:01:34.395Z,63.80
2023-10-23T04:04:00.989Z,63.73
2023-10-23T04:06:27.502Z,61.83
2023-10-23T04:08:54.028Z,62.31
2023-10-23T04:11:20.468Z,63.43
2023-10-23T04:13:46.950Z,62.92
2023-10-23T04:16:13.824Z,64.01
2023-10-23T04:18:40.459Z,63.60
2023-10-23T04:21:07.044Z,63.45
2023-10-23T04:23:33.484Z,63.08
2023-10-23T04:25:59.943Z,61.56
2023-10-23T04:28:26.412Z,61.93
2023-10-23T04:30:53.048Z,61.32
2023-10-23T04:33:19.567Z,61.32
2023-10-23T04:35:47.663Z,61.54
2023-10-23T04:38:15.175Z,62.06
2023-10-23T04:40:41.647Z,62.03
2023-10-23T04:43:08.062Z,61.39
2023-10-23T04:45:34.559Z,60.86
2023-10-23T04:48:01.065Z,60.94
2023-10-23T04:50:27.541Z,61.58
2023-10-23T04:52:53.960Z,62.50
2023-10-23T04:55:20.451Z,62.02
2023-10-23T04:57:47.021Z,62.05
2023-10-23T05:00:13.530Z,61.90
2023-10-23T05:02:40.041Z,61.85
2023-10-23T05:05:06.536Z,61.67
2023-10-23T05:07:33.391Z,61.03
2023-10-23T05:09:59.926Z,61.98
2023-10-23T05:12:26.609Z,62.68
2023-10-23T05:14:53.107Z,63.30
2023-10-23T05:17:19.609Z,62.71
2023-10-23T05:19:46.043Z,63.01
2023-10-23T05:22:12.489Z,63.13
2023-10-23T05:24:39.024Z,63.97
2023-10-23T05:27:05.452Z,64.33
2023-10-23T05:29:31.890Z,63.57
2023-10-23T05:31:58.407Z,63.95
2023-10-23T05:34:24.858Z,64.59
2023-10-23T05:36:51.355Z,64.36
2023-10-23T05:39:17.847Z,65.27
2023-10-23T05:41:44.289Z,64.44
2023-10-23T05:44:10.738Z,63.51
2023-10-23T05:46:37.254Z,63.72
2023-10-23T05:49:03.788Z,64.06
2023-10-23T05:51:30.295Z,64.42
2023-10-23T05:53:56.824Z,64.51
2023-10-23T05:56:23.238Z,65.58
2023-10-23T05:58:49.691Z,65.29
2023-10-23T06:01:16.199Z,65.63
2023-10-23T06:03:42.709Z,65.90
2023-10-23T06:06:09.219Z,65.58
2023-10-23T06:08:35.671Z,64.90
2023-10-23T06:11:02.142Z,64.34
2023-10-23T06:13:28.594Z,63.86
2023-10-23T06:15:55.161Z,66.31
2023-10-23T06:18:24.833Z,66.46
2023-10-23T06:20:51.355Z,63.59
2023-10-23T06:23:17.805Z,65.68
2023-10-23T06:25:44.281Z,68.04
2023-10-23T06:28:10.723Z,67.05
2023-10-23T06:30:37.174Z,68.15
2023-10-23T06:33:03.745Z,67.77
2023-10-23T06:35:30.233Z,67.52
2023-10-23T06:37:58.057Z,67.27
2023-10-23T06:40:24.600Z,67.74
2023-10-23T06:42:51.023Z,69.29
2023-10-23T06:45:17.583Z,70.30
2023-10-23T06:47:44.176Z,69.27
2023-10-23T06:50:10.691Z,68.72
2023-10-23T06:52:37.135Z,67.30
2023-10-23T06:55:03.588Z,67.28
2023-10-23T06:57:30.019Z,69.26
2023-10-23T06:59:56.492Z,69.76
2023-10-23T07:02:23.072Z,70.09
2023-10-23T07:04:49.577Z,68.26
2023-10-23T07:07:28.529Z,68.39
2023-10-23T07:09:55.930Z,68.31
2023-10-23T07:12:22.461Z,68.97
2023-10-23T07:14:49.038Z,68.09
2023-10-23T07:17:15.541Z,65.68
2023-10-23T07:19:42.000Z,68.35
2023-10-23T07:22:08.453Z,68.17
2023-10-23T07:24:34.919Z,66.55
2023-10-23T07:27:01.432Z,66.49
2023-10-23T07:29:27.975Z,65.81
2023-10-23T07:31:54.528Z,64.20
2023-10-23T07:34:21.004Z,63.81
2023-10-23T07:36:47.567Z,63.51
2023-10-23T07:39:14.055Z,63.26
2023-10-23T07:41:40.510Z,63.16
2023-10-23T07:44:06.999Z,63.23
2023-10-23T07:46:33.645Z,63.04
2023-10-23T07:49:00.581Z,64.67
2023-10-23T07:51:27.093Z,64.43
2023-10-23T07:53:53.529Z,64.50
2023-10-23T07:56:20.030Z,62.97
2023-10-23T07:58:46.510Z,63.64
2023-10-23T08:01:13.096Z,64.41
2023-10-23T08:03:39.952Z,65.82
2023-10-23T08:06:06.793Z,67.97
2023-10-23T08:08:33.377Z,68.37
2023-10-23T08:10:59.838Z,66.56
2023-10-23T08:13:26.270Z,65.08
2023-10-23T08:15:53.995Z,66.07
2023-10-23T08:18:36.727Z,65.09
2023-10-23T08:21:08.087Z,66.17
2023-10-23T08:23:34.760Z,65.01
2023-10-23T08:26:01.249Z,64.25
2023-10-23T08:28:30.437Z,64.11
2023-10-23T08:31:01.583Z,63.77
2023-10-23T08:33:28.328Z,62.96
2023-10-23T08:35:54.883Z,63.37
2023-10-23T08:38:21.341Z,63.49
2023-10-23T08:40:47.824Z,65.10
2023-10-23T08:43:14.406Z,64.85
2023-10-23T08:45:41.048Z,63.60
2023-10-23T08:48:07.552Z,63.10
2023-10-23T08:50:34.016Z,62.29
2023-10-23T08:53:11.666Z,63.14
2023-10-23T08:55:38.147Z,61.54
2023-10-23T08:58:04.719Z,61.93
2023-10-23T09:00:31.243Z,61.13
2023-10-23T09:02:57.797Z,61.87
2023-10-23T09:05:24.445Z,60.62
2023-10-23T09:07:51.041Z,60.28
2023-10-23T09:10:17.663Z,60.63
2023-10-23T09:12:44.202Z,60.83
2023-10-23T09:15:10.665Z,59.87
2023-10-23T09:17:37.156Z,60.62
2023-10-23T09:20:03.770Z,60.24
2023-10-23T09:22:30.255Z,62.94
2023-10-23T09:24:56.751Z,62.82
2023-10-23T09:27:23.368Z,61.37
2023-10-23T09:29:49.944Z,61.13
2023-10-23T09:32:16.454Z,60.93
2023-10-23T09:34:42.926Z,60.65
2023-10-23T09:37:09.418Z,61.87
2023-10-23T09:39:35.931Z,60.92
2023-10-23T09:42:02.369Z,60.92
2023-10-23T09:44:28.909Z,59.97
2023-10-23T09:46:55.383Z,60.92
2023-10-23T09:49:22.199Z,61.13
2023-10-23T09:51:48.838Z,60.96
2023-10-23T09:54:15.381Z,60.16
2023-10-23T09:56:41.811Z,59.78
2023-10-23T09:59:08.276Z,60.13
2023-10-23T10:01:34.814Z,60.06
2023-10-23T10:04:01.525Z,59.63
2023-10-23T10:06:28.027Z,59.28
2023-10-23T10:08:54.486Z,59.07
2023-10-23T10:11:20.941Z,59.00
2023-10-23T10:13:47.418Z,59.00
2023-10-23T10:16:13.968Z,59.47
2023-10-23T10:18:40.476Z,59.01
2023-10-23T10:21:06.943Z,58.97
2023-10-23T10:23:33.409Z,58.81
2023-10-23T10:25:59.853Z,59.86
2023-10-23T10:28:26.419Z,59.91
2023-10-23T10:30:52.996Z,59.30
2023-10-23T10:34:25.693Z,58.00
2023-10-23T10:36:06.067Z,57.78
2023-10-23T10:38:32.788Z,57.78
2023-10-23T10:40:59.323Z,57.70
2023-10-23T10:43:25.801Z,56.54
2023-10-23T10:45:52.259Z,56.09
2023-10-23T10:48:18.760Z,56.61
2023-10-23T10:50:45.198Z,55.93
2023-10-23T10:53:11.783Z,55.87
2023-10-23T10:55:38.281Z,54.33
2023-10-23T10:58:04.845Z,54.55
2023-10-23T11:00:31.357Z,54.72
2023-10-23T11:02:57.915Z,54.49
2023-10-23T11:05:24.518Z,54.90
2023-10-23T11:07:50.947Z,55.79
2023-10-23T11:10:17.421Z,54.48
2023-10-23T11:12:43.934Z,54.58
2023-10-23T11:15:10.511Z,54.32
2023-10-23T11:17:37.027Z,54.38
2023-10-23T11:20:03.482Z,52.38
2023-10-23T11:22:29.942Z,52.22
2023-10-23T11:24:56.507Z,52.56
2023-10-23T11:27:23.006Z,52.83
2023-10-23T11:29:49.444Z,52.94
2023-10-23T11:32:16.161Z,53.37
2023-10-23T11:34:42.662Z,53.01
2023-10-23T11:37:09.272Z,52.53
2023-10-23T11:39:35.765Z,51.49
2023-10-23T11:42:02.299Z,51.83
2023-10-23T11:44:28.878Z,51.27
2023-10-23T11:46:55.398Z,51.04
2023-10-23T11:49:22.051Z,50.31
2023-10-23T11:51:48.684Z,50.91
2023-10-23T11:54:15.243Z,51.54
2023-10-23T11:56:41.699Z,51.77
2023-10-23T11:59:08.144Z,52.03
2023-10-23T12:01:34.752Z,51.37
2023-10-23T12:04:01.384Z,51.06
2023-10-23T12:06:27.912Z,52.40
2023-10-23T12:08:56.146Z,51.80
2023-10-23T12:11:23.934Z,51.61
2023-10-23T12:13:50.601Z,51.08
2023-10-23T12:16:17.207Z,50.64
2023-10-23T12:18:43.740Z,50.70
2023-10-23T12:21:10.283Z,51.73
2023-10-23T12:23:36.739Z,51.23
2023-10-23T12:26:03.208Z,50.90
2023-10-23T12:28:29.777Z,50.12
2023-10-23T12:30:56.372Z,50.44
2023-10-23T12:33:28.422Z,49.93
2023-10-23T12:35:59.142Z,50.29
2023-10-23T12:38:25.617Z,50.80
2023-10-23T12:40:52.166Z,50.50
2023-10-23T12:43:18.721Z,50.53
2023-10-23T12:45:45.323Z,52.31
2023-10-23T12:48:11.875Z,51.30
2023-10-23T12:50:38.390Z,51.72
2023-10-23T12:53:04.835Z,50.93
2023-10-23T12:55:31.589Z,51.29
2023-10-23T12:57:58.064Z,50.60
2023-10-23T13:00:24.567Z,50.59
2023-10-23T13:02:51.131Z,50.94
2023-10-23T13:05:17.690Z,50.77
2023-10-23T13:07:44.207Z,51.35
2023-10-23T13:10:10.810Z,50.46
2023-10-23T13:12:37.408Z,50.36
2023-10-23T13:15:03.969Z,50.86
2023-10-23T13:17:30.526Z,49.98
2023-10-23T13:19:57.047Z,49.69
2023-10-23T13:22:23.581Z,49.60
2023-10-23T13:24:50.125Z,49.47
2023-10-23T13:27:16.846Z,50.50
2023-10-23T13:29:43.371Z,50.01
2023-10-23T13:32:09.894Z,49.93
2023-10-23T13:34:36.375Z,49.60
2023-10-23T13:37:03.332Z,50.34
2023-10-23T13:39:29.827Z,49.55
2023-10-23T13:41:56.347Z,50.04
2023-10-23T13:44:22.831Z,51.86
2023-10-23T13:46:49.434Z,51.38
2023-10-23T13:49:16.126Z,51.09
2023-10-23T13:51:42.844Z,50.57
2023-10-23T13:54:09.347Z,50.68
2023-10-23T13:56:35.850Z,50.32
2023-10-23T13:59:02.321Z,50.77
2023-10-23T14:01:28.847Z,50.96
2023-10-23T14:03:55.474Z,50.40
2023-10-23T14:06:22.231Z,51.55
2023-10-23T14:09:39.012Z,51.04
2023-10-23T14:12:01.131Z,50.73
2023-10-23T14:14:21.560Z,52.92
2023-10-23T14:16:48.021Z,51.50
2023-10-23T14:19:20.063Z,50.97
2023-10-23T14:21:52.819Z,51.37
2023-10-23T14:24:19.373Z,51.39
2023-10-23T14:26:45.930Z,50.84
2023-10-23T14:29:12.385Z,51.31
2023-10-23T14:31:38.940Z,51.66
2023-10-23T14:34:05.558Z,51.87
2023-10-23T14:36:32.071Z,52.28
2023-10-23T14:38:58.632Z,52.42
2023-10-23T14:41:25.102Z,51.56
2023-10-23T14:43:51.587Z,51.38
2023-10-23T14:46:18.092Z,51.26
2023-10-23T14:48:44.582Z,51.46
2023-10-23T14:51:11.052Z,52.45
2023-10-23T14:53:37.584Z,52.58
2023-10-23T14:56:04.021Z,51.85
2023-10-23T14:58:31.178Z,51.86
2023-10-23T15:00:58.873Z,52.50
2023-10-23T15:03:25.417Z,52.85
2023-10-23T15:05:51.853Z,53.81
2023-10-23T15:08:18.359Z,52.61
2023-10-23T15:10:44.824Z,52.71
2023-10-23T15:13:11.316Z,52.29
2023-10-23T15:15:37.860Z,53.09
2023-10-23T15:18:04.381Z,53.51
2023-10-23T15:20:30.846Z,53.71
2023-10-23T15:22:57.547Z,52.71
2023-10-23T15:25:25.308Z,52.92
2023-10-23T15:27:51.820Z,52.97
2023-10-23T15:30:18.397Z,54.28
2023-10-23T15:32:44.888Z,54.06
2023-10-23T15:35:11.580Z,54.13
2023-10-23T15:37:38.035Z,53.75
2023-10-23T15:40:04.575Z,54.49
2023-10-23T15:42:31.055Z,54.61
2023-10-23T15:44:57.576Z,54.26
2023-10-23T15:47:24.185Z,54.77
2023-10-23T15:49:50.692Z,54.61
2023-10-23T15:52:17.133Z,56.04
2023-10-23T15:54:43.618Z,56.16
2023-10-23T15:57:10.766Z,55.61
2023-10-23T15:59:43.848Z,55.69
2023-10-23T16:02:10.384Z,56.34
2023-10-23T16:04:40.829Z,57.09
2023-10-23T16:07:08.926Z,57.68
2023-10-23T16:09:35.433Z,56.70
2023-10-23T16:12:10.077Z,56.53
2023-10-23T16:14:53.540Z,56.12
2023-10-23T16:17:22.917Z,56.04
2023-10-23T16:19:49.402Z,56.08
2023-10-23T16:22:15.894Z,55.75
2023-10-23T16:24:42.601Z,56.28
2023-10-23T16:27:09.229Z,56.52
2023-10-23T16:29:35.727Z,55.64
2023-10-23T16:32:02.288Z,55.57
2023-10-23T16:34:28.914Z,56.65
2023-10-23T16:36:55.556Z,56.27
2023-10-23T16:39:22.093Z,56.51
2023-10-23T16:41:48.522Z,55.82
2023-10-23T16:44:14.980Z,56.73
2023-10-23T16:46:41.477Z,56.32
2023-10-23T16:49:07.969Z,56.73
2023-10-23T16:51:34.461Z,56.96
2023-10-23T16:54:00.898Z,57.56
2023-10-23T16:56:27.338Z,58.69
2023-10-23T16:58:53.854Z,56.92
2023-10-23T17:01:20.423Z,57.50
2023-10-23T17:03:46.993Z,57.47
2023-10-23T17:06:13.683Z,57.43
2023-10-23T17:08:40.184Z,57.80
2023-10-23T17:11:06.625Z,58.03
2023-10-23T17:13:33.753Z,58.99
2023-10-23T17:16:00.397Z,58.03
2023-10-23T17:18:26.879Z,58.40
2023-10-23T17:20:53.339Z,58.39
2023-10-23T17:23:19.846Z,57.97
2023-10-23T17:25:46.281Z,57.46
2023-10-23T17:28:12.741Z,57.58
2023-10-23T17:30:39.220Z,57.95
2023-10-23T17:33:05.727Z,58.94
2023-10-23T17:35:32.238Z,58.26
2023-10-23T17:38:00.442Z,57.65
2023-10-23T17:40:27.462Z,57.72
2023-10-23T17:42:53.977Z,57.21
2023-10-23T17:45:20.420Z,58.44
2023-10-23T17:47:46.908Z,59.53
2023-10-23T17:50:13.413Z,59.11
2023-10-23T17:52:40.040Z,58.58
2023-10-23T17:55:06.658Z,57.49
2023-10-23T17:57:33.146Z,58.64
2023-10-23T17:59:59.633Z,58.37
2023-10-23T18:02:26.103Z,57.28
2023-10-23T18:04:52.581Z,57.37
2023-10-23T18:07:19.111Z,57.60
2023-10-23T18:09:45.628Z,58.73
2023-10-23T18:12:26.750Z,61.23
2023-10-23T18:14:57.982Z,59.46
2023-10-23T18:17:24.420Z,60.32
2023-10-23T18:19:50.981Z,60.78
2023-10-23T18:22:17.518Z,59.00
2023-10-23T18:24:44.102Z,59.33
2023-10-23T18:27:10.649Z,60.67
2023-10-23T18:29:37.113Z,60.77
2023-10-23T18:32:03.599Z,61.52
2023-10-23T18:34:30.176Z,60.63
2023-10-23T18:36:56.653Z,60.13
2023-10-23T18:39:23.193Z,60.46
2023-10-23T18:41:49.829Z,60.68
2023-10-23T18:44:16.392Z,59.96
2023-10-23T18:46:42.919Z,60.62
2023-10-23T18:49:09.453Z,59.79
2023-10-23T18:51:35.918Z,60.71
2023-10-23T18:54:02.392Z,60.08
2023-10-23T18:56:28.860Z,61.33
2023-10-23T18:58:55.336Z,59.45
2023-10-23T19:01:21.917Z,59.73
2023-10-23T19:03:48.521Z,60.51
2023-10-23T19:06:14.964Z,59.89
2023-10-23T19:08:41.407Z,61.53
2023-10-23T19:11:07.892Z,61.63
2023-10-23T19:13:34.460Z,60.05
2023-10-23T19:16:01.054Z,59.97
2023-10-23T19:18:30.333Z,60.34
2023-10-23T19:20:57.789Z,60.13
2023-10-23T19:23:24.246Z,61.70
2023-10-23T19:25:50.780Z,61.56
2023-10-23T19:28:17.366Z,61.66
2023-10-23T19:30:43.853Z,60.67
2023-10-23T19:33:10.374Z,61.68
2023-10-23T19:35:36.823Z,60.96
2023-10-23T19:38:03.267Z,61.89
2023-10-23T19:40:29.893Z,61.69
2023-10-23T19:42:56.378Z,61.53
2023-10-23T19:45:22.835Z,61.51
2023-10-23T19:47:49.339Z,62.31
2023-10-23T19:50:15.853Z,61.72
2023-10-23T19:52:42.444Z,63.65
2023-10-23T19:55:45.211Z,64.68
2023-10-23T19:57:55.367Z,62.40
2023-10-23T20:00:21.826Z,63.53
2023-10-23T20:02:48.335Z,62.59
2023-10-23T20:05:14.829Z,63.22
2023-10-23T20:07:41.385Z,63.35
2023-10-23T20:10:07.881Z,64.51
2023-10-23T20:12:34.485Z,66.45
2023-10-23T20:15:00.956Z,66.23
2023-10-23T20:17:27.448Z,65.29
2023-10-23T20:19:53.994Z,67.21
2023-10-23T20:22:20.566Z,66.02
2023-10-23T20:24:47.106Z,65.10
2023-10-23T20:27:13.545Z,64.72
2023-10-23T20:29:40.134Z,64.50
2023-10-23T20:32:06.833Z,64.57
2023-10-23T20:34:33.391Z,64.62
2023-10-23T20:36:59.986Z,64.90
2023-10-23T20:39:26.642Z,64.76
2023-10-23T20:41:53.071Z,65.85
2023-10-23T20:44:19.550Z,66.03
2023-10-23T20:46:46.099Z,67.09
2023-10-23T20:49:12.672Z,64.90
2023-10-23T20:51:39.137Z,64.21
2023-10-23T20:54:05.575Z,63.96
2023-10-23T20:56:32.042Z,64.15
2023-10-23T20:58:58.532Z,65.00
2023-10-23T21:01:25.041Z,65.01
2023-10-23T21:03:51.594Z,64.89
2023-10-23T21:06:18.106Z,66.55
2023-10-23T21:08:44.548Z,65.12
2023-10-23T21:11:11.017Z,64.21
2023-10-23T21:13:37.521Z,65.84
2023-10-23T21:16:04.056Z,65.34
2023-10-23T21:18:30.511Z,66.19
2023-10-23T21:20:56.981Z,66.16
2023-10-23T21:23:23.468Z,65.97
2023-10-23T21:25:49.928Z,66.70
2023-10-23T21:28:16.385Z,65.71
2023-10-23T21:30:42.903Z,68.47
2023-10-23T21:33:09.375Z,69.78
2023-10-23T21:35:35.872Z,69.70
2023-10-23T21:38:02.312Z,71.21
2023-10-23T21:40:28.809Z,72.19
2023-10-23T21:42:55.286Z,72.30
2023-10-23T21:45:21.728Z,73.75
2023-10-23T21:47:48.228Z,75.71
2023-10-23T21:50:14.752Z,77.84
2023-10-23T21:52:41.246Z,75.72
2023-10-23T21:55:18.288Z,73.69
2023-10-23T21:57:45.746Z,76.22
2023-10-23T22:00:12.233Z,76.36
2023-10-23T22:02:38.778Z,75.45
2023-10-23T22:05:05.329Z,75.90
2023-10-23T22:07:31.946Z,75.59
2023-10-23T22:09:58.427Z,73.46
2023-10-23T22:12:24.913Z,72.34
2023-10-23T22:14:51.378Z,72.24
2023-10-23T22:17:17.874Z,71.76
2023-10-23T22:19:44.430Z,73.57
2023-10-23T22:22:11.050Z,71.74
2023-10-23T22:24:37.577Z,72.27
2023-10-23T22:27:04.092Z,70.50
2023-10-23T22:29:30.534Z,69.54
2023-10-23T22:31:57.073Z,69.98
2023-10-23T22:34:23.583Z,69.36
2023-10-23T22:37:55.708Z,68.34
2023-10-23T22:39:36.525Z,68.17
2023-10-23T22:42:02.991Z,68.28
2023-10-23T22:44:29.427Z,67.89
2023-10-23T22:46:55.973Z,67.00
2023-10-23T22:49:22.500Z,67.35
2023-10-23T22:51:48.950Z,67.36
2023-10-23T22:54:15.432Z,66.80
2023-10-23T22:56:41.870Z,67.06
2023-10-23T22:59:08.305Z,67.34
2023-10-23T23:01:34.905Z,66.90
2023-10-23T23:04:01.417Z,66.29
2023-10-23T23:06:27.893Z,66.46
2023-10-23T23:08:54.335Z,66.75
2023-10-23T23:11:20.801Z,67.23
2023-10-23T23:13:47.263Z,67.22
2023-10-23T23:16:13.740Z,67.74
2023-10-23T23:18:40.246Z,66.86
2023-10-23T23:21:06.692Z,68.19
2023-10-23T23:23:33.093Z,67.76
2023-10-23T23:25:59.545Z,68.37
2023-10-23T23:28:26.065Z,69.54
2023-10-23T23:30:52.561Z,69.52
2023-10-23T23:33:18.999Z,68.71
2023-10-23T23:35:45.472Z,68.25
2023-10-23T23:38:11.890Z,67.53
2023-10-23T23:40:38.371Z,68.68
2023-10-23T23:43:04.803Z,67.30
2023-10-23T23:45:31.265Z,66.99
2023-10-23T23:47:57.736Z,67.67
2023-10-23T23:50:24.211Z,68.59
2023-10-23T23:52:50.653Z,68.79
2023-10-23T23:55:17.122Z,70.65
2023-10-23T23:57:43.605Z,69.95
